createdAt,value
2023-01-22T00:01:37.493Z,-0.79
2023-01-22T00:04:11.305Z,-0.81
2023-01-22T00:06:43.990Z,-0.77
2023-01-22T00:09:17.209Z,-0.75
2023-01-22T00:11:50.430Z,-0.73
2023-01-22T00:14:23.181Z,-0.81
2023-01-22T00:16:57.713Z,-0.71
2023-01-22T00:19:30.838Z,-0.80
2023-01-22T00:22:03.977Z,-0.74
2023-01-22T00:24:37.282Z,-0.75
2023-01-22T00:27:10.544Z,-0.80
2023-01-22T00:29:43.407Z,-0.79
2023-01-22T00:32:17.706Z,-0.82
2023-01-22T00:34:52.529Z,-0.83
2023-01-22T00:37:26.294Z,-0.84
2023-01-22T00:39:59.378Z,-0.87
2023-01-22T00:42:32.717Z,-0.90
2023-01-22T00:45:06.859Z,-0.92
2023-01-22T00:47:41.051Z,-0.92
2023-01-22T00:50:14.274Z,-0.93
2023-01-22T00:52:46.987Z,-0.94
2023-01-22T00:55:19.874Z,-0.99
2023-01-22T00:57:52.782Z,-0.95
2023-01-22T01:00:26.045Z,-0.98
2023-01-22T01:03:18.631Z,-0.98
2023-01-22T01:05:51.393Z,-1.00
2023-01-22T01:08:25.588Z,-1.02
2023-01-22T01:10:59.858Z,-1.01
2023-01-22T01:13:35.030Z,-1.00
2023-01-22T01:16:12.070Z,-1.09
2023-01-22T01:18:47.133Z,-1.01
2023-01-22T01:21:20.890Z,-1.02
2023-01-22T01:23:56.345Z,-1.02
2023-01-22T01:26:29.398Z,-0.98
2023-01-22T01:29:02.368Z,-0.96
2023-01-22T01:31:35.923Z,-0.96
2023-01-22T01:34:10.183Z,-1.00
2023-01-22T01:36:50.444Z,-1.01
2023-01-22T01:39:24.336Z,-0.92
2023-01-22T01:41:57.408Z,-0.93
2023-01-22T01:44:32.279Z,-0.93
2023-01-22T01:47:10.125Z,-0.95
2023-01-22T01:49:48.277Z,-0.98
2023-01-22T01:52:21.139Z,-1.06
2023-01-22T01:54:58.314Z,-0.94
2023-01-22T01:57:34.562Z,-1.00
2023-01-22T02:00:13.139Z,-0.96
2023-01-22T02:02:51.133Z,-0.92
2023-01-22T02:05:29.182Z,-0.93
2023-01-22T02:08:02.162Z,-0.93
2023-01-22T02:10:36.206Z,-0.99
2023-01-22T02:13:12.651Z,-0.92
2023-01-22T02:15:45.908Z,-0.92
2023-01-22T02:18:20.711Z,-0.99
2023-01-22T02:20:58.112Z,-0.92
2023-01-22T02:23:32.854Z,-0.91
2023-01-22T02:26:06.622Z,-0.91
2023-01-22T02:28:39.438Z,-0.91
2023-01-22T02:31:12.841Z,-0.97
2023-01-22T02:33:46.194Z,-0.92
2023-01-22T02:36:21.923Z,-0.99
2023-01-22T02:38:56.191Z,-1.01
2023-01-22T02:41:29.319Z,-1.04
2023-01-22T02:44:02.146Z,-0.96
2023-01-22T02:46:35.268Z,-1.07
2023-01-22T02:49:07.831Z,-0.98
2023-01-22T02:51:43.196Z,-0.98
2023-01-22T02:54:17.033Z,-0.95
2023-01-22T02:56:49.919Z,-0.95
2023-01-22T02:59:23.182Z,-0.96
2023-01-22T03:01:57.415Z,-0.95
2023-01-22T03:04:32.228Z,-0.94
2023-01-22T03:07:06.746Z,-0.93
2023-01-22T03:09:39.256Z,-0.97
2023-01-22T03:12:13.278Z,-0.97
2023-01-22T03:15:05.477Z,-0.94
2023-01-22T03:17:56.794Z,-0.96
2023-01-22T03:20:48.430Z,-0.99
2023-01-22T03:23:27.640Z,-0.98
2023-01-22T03:26:00.969Z,-0.96
2023-01-22T03:28:34.480Z,-1.06
2023-01-22T03:31:08.134Z,-1.00
2023-01-22T03:33:42.999Z,-0.95
2023-01-22T03:36:15.997Z,-0.96
2023-01-22T03:38:55.690Z,-0.94
2023-01-22T03:41:30.169Z,-0.97
2023-01-22T03:44:03.940Z,-0.94
2023-01-22T03:46:40.608Z,-1.02
2023-01-22T03:49:15.104Z,-1.07
2023-01-22T03:51:48.921Z,-0.94
2023-01-22T03:54:23.874Z,-0.93
2023-01-22T03:56:57.266Z,-0.91
2023-01-22T03:59:36.888Z,-0.92
2023-01-22T04:02:10.120Z,-0.99
2023-01-22T04:04:53.974Z,-0.89
2023-01-22T04:07:27.322Z,-0.90
2023-01-22T04:10:01.896Z,-0.94
2023-01-22T04:12:36.541Z,-0.93
2023-01-22T04:15:11.077Z,-0.98
2023-01-22T04:17:44.441Z,-1.06
2023-01-22T04:20:48.286Z,-0.94
2023-01-22T04:23:36.959Z,-0.96
2023-01-22T04:26:11.435Z,-1.00
2023-01-22T04:28:44.967Z,-0.94
2023-01-22T04:31:19.832Z,-0.98
2023-01-22T04:34:27.789Z,-1.02
2023-01-22T04:37:21.254Z,-0.92
2023-01-22T04:39:54.093Z,-0.90
2023-01-22T04:42:28.486Z,-0.88
2023-01-22T04:45:01.275Z,-0.87
2023-01-22T04:47:40.790Z,-0.84
2023-01-22T04:50:17.950Z,-0.88
2023-01-22T04:52:53.149Z,-0.82
2023-01-22T04:55:27.407Z,-0.91
2023-01-22T04:58:08.583Z,-0.82
2023-01-22T05:00:41.621Z,-0.77
2023-01-22T05:03:15.600Z,-0.75
2023-01-22T05:05:48.684Z,-0.72
2023-01-22T05:08:24.961Z,-0.72
2023-01-22T05:11:01.642Z,-0.71
2023-01-22T05:13:41.823Z,-0.73
2023-01-22T05:16:14.363Z,-0.80
2023-01-22T05:18:47.446Z,-0.73
2023-01-22T05:21:20.887Z,-0.85
2023-01-22T05:23:53.294Z,-0.79
2023-01-22T05:26:26.687Z,-0.79
2023-01-22T05:29:12.038Z,-0.81
2023-01-22T05:32:11.358Z,-0.77
2023-01-22T05:34:50.207Z,-0.96
2023-01-22T05:37:23.483Z,-0.80
2023-01-22T05:39:57.239Z,-0.77
2023-01-22T05:42:30.558Z,-0.75
2023-01-22T05:45:06.119Z,-0.74
2023-01-22T05:47:42.401Z,-0.73
2023-01-22T05:50:23.806Z,-0.71
2023-01-22T05:53:07.573Z,-0.71
2023-01-22T05:55:40.517Z,-0.67
2023-01-22T05:58:14.143Z,-0.68
2023-01-22T06:00:54.023Z,-0.69
2023-01-22T06:03:32.486Z,-0.75
2023-01-22T06:06:07.031Z,-0.71
2023-01-22T06:08:40.609Z,-0.76
2023-01-22T06:11:15.290Z,-0.70
2023-01-22T06:13:51.466Z,-0.68
2023-01-22T06:16:27.274Z,-0.68
2023-01-22T06:19:12.828Z,-0.66
2023-01-22T06:21:57.417Z,-0.64
2023-01-22T06:24:37.167Z,-0.59
2023-01-22T06:27:12.276Z,-0.60
2023-01-22T06:29:55.604Z,-0.60
2023-01-22T06:32:29.760Z,-0.67
2023-01-22T06:35:04.977Z,-0.55
2023-01-22T06:37:38.329Z,-0.55
2023-01-22T06:40:12.577Z,-0.57
2023-01-22T06:42:50.093Z,-0.63
2023-01-22T06:45:23.642Z,-0.54
2023-01-22T06:48:01.368Z,-0.57
2023-01-22T06:50:34.183Z,-0.54
2023-01-22T06:53:08.464Z,-0.59
2023-01-22T06:55:41.365Z,-0.52
2023-01-22T06:58:14.285Z,-0.52
2023-01-22T07:00:47.153Z,-0.48
2023-01-22T07:03:21.625Z,-0.51
2023-01-22T07:05:59.351Z,-0.46
2023-01-22T07:08:34.215Z,-0.47
2023-01-22T07:11:08.016Z,-0.42
2023-01-22T07:13:41.741Z,-0.48
2023-01-22T07:16:15.108Z,-0.42
2023-01-22T07:18:49.454Z,-0.37
2023-01-22T07:21:22.433Z,-0.38
2023-01-22T07:23:55.677Z,-0.40
2023-01-22T07:26:33.302Z,-0.46
2023-01-22T07:29:06.768Z,-0.32
2023-01-22T07:31:40.322Z,-0.32
2023-01-22T15:27:33.513Z,-0.05
2023-01-22T15:30:08.012Z,-0.01
2023-01-22T15:32:41.520Z,0.02
2023-01-22T15:35:14.698Z,0.07
2023-01-22T15:37:48.664Z,0.09
2023-01-22T15:40:22.128Z,0.10
2023-01-22T15:42:56.690Z,0.10
2023-01-22T15:45:31.006Z,0.16
2023-01-22T15:48:04.406Z,0.15
2023-01-22T15:50:37.017Z,0.14
2023-01-22T15:53:10.234Z,0.14
2023-01-22T15:55:49.680Z,0.14
2023-01-22T15:58:23.926Z,0.14
2023-01-22T16:00:57.504Z,0.13
2023-01-22T16:03:30.891Z,0.12
2023-01-22T16:06:11.738Z,0.12
2023-01-22T16:08:46.602Z,0.11
2023-01-22T16:11:20.208Z,0.21
2023-01-22T16:13:54.492Z,0.17
2023-01-22T16:16:30.757Z,0.19
2023-01-22T16:19:07.005Z,0.13
2023-01-22T16:21:40.461Z,0.12
2023-01-22T16:24:13.697Z,0.17
2023-01-22T16:26:46.759Z,0.15
2023-01-22T16:29:20.949Z,0.15
2023-01-22T16:31:54.371Z,0.18
2023-01-22T16:34:27.609Z,0.19
2023-01-22T16:37:00.575Z,-0.06
2023-01-22T16:39:34.237Z,0.19
2023-01-22T16:42:07.561Z,0.18
2023-01-22T16:44:41.950Z,0.20
2023-01-22T16:47:14.942Z,0.20
2023-01-22T16:49:49.080Z,0.22
2023-01-22T16:52:23.242Z,0.12
2023-01-22T16:54:56.621Z,0.25
2023-01-22T16:57:29.524Z,0.25
2023-01-22T17:00:04.908Z,0.17
2023-01-22T17:02:38.490Z,0.20
2023-01-22T17:05:13.579Z,0.22
2023-01-22T17:07:47.544Z,0.24
2023-01-22T17:10:20.994Z,0.26
2023-01-22T17:12:53.814Z,0.28
2023-01-22T17:15:28.110Z,0.17
2023-01-22T17:18:04.420Z,0.29
2023-01-22T17:20:38.036Z,0.15
2023-01-22T17:23:11.441Z,0.27
2023-01-22T17:25:44.390Z,0.23
2023-01-22T17:28:18.607Z,0.19
2023-01-22T17:30:53.466Z,0.20
2023-01-22T17:33:26.848Z,0.23
2023-01-22T17:35:59.849Z,0.21
2023-01-22T17:38:37.427Z,0.22
2023-01-22T17:41:17.448Z,0.16
2023-01-22T17:43:56.160Z,0.16
2023-01-22T17:46:32.252Z,0.19
2023-01-22T17:49:05.997Z,0.19
2023-01-22T17:51:39.311Z,0.14
2023-01-22T17:54:12.438Z,0.18
2023-01-22T17:56:49.602Z,0.18
2023-01-22T17:59:25.182Z,0.18
2023-01-22T18:02:00.571Z,0.17
2023-01-22T18:04:34.943Z,0.14
2023-01-22T18:07:07.887Z,0.09
2023-01-22T18:09:40.923Z,0.17
2023-01-22T18:12:13.897Z,0.16
2023-01-22T18:14:48.219Z,0.07
2023-01-22T18:17:23.442Z,0.14
2023-01-22T18:19:56.201Z,0.19
2023-01-22T18:22:29.188Z,0.15
2023-01-22T18:25:02.376Z,0.20
2023-01-22T18:27:35.767Z,0.12
2023-01-22T18:30:09.903Z,0.19
2023-01-22T18:32:44.402Z,0.15
2023-01-22T18:35:17.793Z,0.18
2023-01-22T18:37:53.986Z,0.18
2023-01-22T18:40:28.843Z,0.15
2023-01-22T18:43:01.657Z,0.15
2023-01-22T18:45:35.726Z,0.17
2023-01-22T18:48:12.925Z,0.17
2023-01-22T18:50:53.417Z,0.11
2023-01-22T18:53:26.654Z,0.05
2023-01-22T18:56:00.440Z,0.15
2023-01-22T18:58:36.114Z,0.15
2023-01-22T19:01:12.190Z,0.16
2023-01-22T19:03:48.831Z,0.15
2023-01-22T19:06:23.826Z,0.16
2023-01-22T19:08:59.572Z,0.13
2023-01-22T19:11:34.611Z,0.20
2023-01-22T19:14:09.529Z,0.21
2023-01-22T19:16:45.222Z,0.21
2023-01-22T19:19:21.839Z,0.21
2023-01-22T19:21:56.061Z,0.19
2023-01-22T19:24:30.814Z,0.18
2023-01-22T19:27:04.636Z,0.18
2023-01-22T19:29:37.397Z,0.18
2023-01-22T19:32:12.509Z,0.15
2023-01-22T19:34:49.948Z,0.08
2023-01-22T19:37:23.377Z,0.15
2023-01-22T19:39:56.627Z,0.11
2023-01-22T19:42:29.921Z,0.18
2023-01-22T19:45:02.858Z,0.07
2023-01-22T19:47:36.793Z,0.15
2023-01-22T19:50:12.279Z,0.04
2023-01-22T19:52:45.247Z,0.13
2023-01-22T19:55:20.080Z,0.13
2023-01-22T19:57:55.681Z,0.08
2023-01-22T20:00:28.278Z,0.10
2023-01-22T20:03:06.213Z,0.11
2023-01-22T20:05:41.782Z,0.12
2023-01-22T20:08:14.865Z,0.13
2023-01-22T20:10:51.402Z,0.08
2023-01-22T20:13:24.907Z,0.12
2023-01-22T20:15:59.568Z,0.09
2023-01-22T20:18:33.335Z,0.11
2023-01-22T20:21:08.310Z,0.14
2023-01-22T20:23:41.045Z,0.14
2023-01-22T20:26:16.731Z,-0.02
2023-01-22T20:28:49.826Z,0.11
2023-01-22T20:31:24.419Z,0.12
2023-01-22T20:33:57.650Z,0.11
2023-01-22T20:36:31.715Z,0.11
2023-01-22T20:39:04.696Z,0.11
2023-01-22T20:41:37.793Z,0.08
2023-01-22T20:44:12.378Z,0.04
2023-01-22T20:46:45.177Z,0.10
2023-01-22T20:49:18.317Z,0.11
2023-01-22T20:51:53.473Z,0.06
2023-01-22T20:54:28.090Z,0.08
2023-01-22T20:57:01.164Z,0.12
2023-01-22T20:59:34.176Z,0.10
2023-01-22T21:02:07.244Z,0.14
2023-01-22T21:04:40.646Z,0.14
2023-01-22T21:07:15.204Z,0.11
2023-01-22T21:09:48.006Z,0.12
2023-01-22T21:12:20.833Z,0.12
2023-01-22T21:14:54.630Z,0.10
2023-01-22T21:17:27.497Z,0.08
2023-01-22T21:20:00.578Z,0.09
2023-01-22T21:22:34.837Z,0.10
2023-01-22T21:25:08.280Z,0.09
2023-01-22T21:27:41.416Z,0.07
2023-01-22T21:30:15.181Z,0.12
2023-01-22T21:32:51.753Z,0.13
2023-01-22T21:35:24.870Z,0.11
2023-01-22T21:37:59.282Z,0.09
2023-01-22T21:40:32.602Z,0.08
2023-01-22T21:43:23.984Z,0.09
2023-01-22T21:46:18.444Z,0.04
2023-01-22T21:48:51.643Z,0.06
2023-01-22T21:51:25.081Z,0.09
2023-01-22T21:53:59.282Z,0.09
2023-01-22T21:56:32.762Z,0.10
2023-01-22T21:59:05.535Z,0.06
2023-01-22T22:01:39.067Z,0.10
2023-01-22T22:04:13.466Z,0.10
2023-01-22T22:06:46.432Z,0.11
2023-01-22T22:09:23.270Z,0.09
2023-01-22T22:11:57.396Z,0.05
2023-01-22T22:14:30.267Z,0.02
2023-01-22T22:17:03.491Z,0.04
2023-01-22T22:19:36.439Z,0.04
2023-01-22T22:22:09.220Z,0.03
2023-01-22T22:24:48.358Z,0.03
2023-01-22T22:27:27.942Z,0.04
2023-01-22T22:30:01.334Z,0.06
2023-01-22T22:32:36.575Z,0.00
2023-01-22T22:35:09.912Z,0.06
2023-01-22T22:37:43.027Z,0.05
2023-01-22T22:40:19.386Z,0.01
2023-01-22T22:42:52.769Z,-0.03
2023-01-22T22:45:25.852Z,0.00
2023-01-22T22:47:58.866Z,-0.02
2023-01-22T22:50:32.082Z,-0.03
2023-01-22T22:53:05.219Z,-0.05
2023-01-22T22:55:42.847Z,-0.10
2023-01-22T22:58:15.722Z,-0.03
2023-01-22T23:00:48.622Z,-0.03
2023-01-22T23:03:21.325Z,-0.01
2023-01-22T23:05:54.537Z,-0.01
2023-01-22T23:08:27.822Z,0.00
2023-01-22T23:11:05.002Z,0.01
2023-01-22T23:13:38.412Z,0.01
2023-01-22T23:16:13.415Z,-0.02
2023-01-22T23:18:47.842Z,-0.02
2023-01-22T23:21:24.348Z,-0.06
2023-01-22T23:23:57.733Z,-0.12
2023-01-22T23:26:32.401Z,-0.06
2023-01-22T23:29:08.048Z,-0.07
2023-01-22T23:31:41.805Z,-0.08
2023-01-22T23:34:17.177Z,-0.09
2023-01-22T23:36:50.995Z,-0.10
2023-01-22T23:39:24.229Z,-0.14
2023-01-22T23:41:58.035Z,-0.06
2023-01-22T23:44:31.583Z,-0.04
2023-01-22T23:47:04.345Z,-0.06
2023-01-22T23:49:38.006Z,-0.03
2023-01-22T23:52:11.061Z,-0.01
2023-01-22T23:54:43.960Z,-0.08
2023-01-22T23:57:18.357Z,-0.04
2023-01-22T23:59:51.686Z,-0.01
